Time;durP1;ratioP1;P1;durP2;ratioP2;P2;SDS_P1;SDS_P2;PMS_P1;PMS_P2;Temp;Humidity;BMP_temperature;BMP_pressure;BME280_temperature;BME280_humidity;BME280_pressure;Samples;Min_cycle;Max_cycle;Signal;HPM_P1;HPM_P2
2024/04/01 00:01:26;;;;;;;;;;;;;;;-144.99;100.00;52497.00;5026439;28;20027;-62
2024/04/01 00:03:52;;;;;;;;;;;;;;;-144.99;100.00;52497.00;5027011;28;19929;-63
2024/04/01 00:06:18;;;;;;;;;;;;;;;-144.99;100.00;52490.91;5018440;28;20161;-62
2024/04/01 00:08:44;;;;;;;;;;;;;;;-144.99;100.00;52505.16;5026415;28;20048;-62
2024/04/01 00:11:10;;;;;;;;;;;;;;;-144.99;100.00;52533.69;5026165;28;20112;-62
2024/04/01 00:13:37;;;;;;;;;;;;;;;-144.99;100.00;52501.09;5026697;28;20034;-62
2024/04/01 00:16:03;;;;;;;;;;;;;;;-144.99;100.00;52525.56;5026819;28;20378;-62
2024/04/01 00:18:30;;;;;;;;;;;;;;;-144.99;100.00;52492.94;5026168;28;19968;-61
2024/04/01 00:20:56;;;;;;;;;;;;;;;-144.99;100.00;52507.19;5025574;28;19972;-62
2024/04/01 00:23:23;;;;;;;;;;;;;;;-144.99;100.00;52505.16;5000625;28;19929;-62
2024/04/01 00:25:48;;;;;;;;;;;;;;;-144.99;100.00;52515.34;5026570;28;20047;-61
2024/04/01 00:28:15;;;;;;;;;;;;;;;-144.99;100.00;52480.72;5025527;28;20471;-61
2024/04/01 00:30:41;;;;;;;;;;;;;;;-144.99;100.00;52492.94;5023975;28;19960;-61
2024/04/01 00:33:09;;;;;;;;;;;;;;;-144.99;100.00;52458.28;5025658;28;19937;-60
2024/04/01 00:35:37;;;;;;;;;;;;;;;-144.99;100.00;52494.97;5025526;28;20024;-60
2024/04/01 00:38:03;;;;;;;;;;;;;;;-144.99;100.00;52480.72;5025290;28;19936;-59
2024/04/01 00:40:29;;;;;;;;;;;;;;;-144.99;100.00;52484.78;5020703;28;19933;-61
2024/04/01 00:43:03;;;;;;;;;;;;;;;-144.99;100.00;52517.41;5025064;28;20427;-61
2024/04/01 00:45:29;;;;;;;;;;;;;;;-144.99;100.00;52484.78;5025612;28;19976;-61
2024/04/01 00:47:59;;;;;;;;;;;;;;;-144.99;100.00;52525.56;5025983;28;19968;-61
2024/04/01 00:50:25;;;;;;;;;;;;;;;-144.99;100.00;52505.16;5023527;28;20422;-61
2024/04/01 00:52:52;;;;;;;;;;;;;;;-144.99;100.00;52464.41;5025170;28;20019;-61
2024/04/01 00:55:17;;;;;;;;;;;;;;;-144.99;100.00;52492.94;5025506;28;19948;-66
2024/04/01 00:57:44;;;;;;;;;;;;;;;-144.99;100.00;52488.84;5025217;28;19983;-67
2024/04/01 01:00:10;;;;;;;;;;;;;;;-144.99;100.00;52545.94;5023868;28;19980;-66
2024/04/01 01:02:37;;;;;;;;;;;;;;;-144.99;100.00;52521.47;5023058;28;19936;-67
2024/04/01 01:05:04;;;;;;;;;;;;;;;-144.99;100.00;52488.84;5024819;28;19983;-67
2024/04/01 01:07:32;;;;;;;;;;;;;;;-144.99;100.00;52505.16;5024144;28;19995;-67
2024/04/01 01:09:58;;;;;;;;;;;;;;;-144.99;100.00;52521.47;5018169;28;19925;-67
2024/04/01 01:12:25;;;;;;;;;;;;;;;-144.99;100.00;52533.69;5017307;28;19929;-67
2024/04/01 01:14:50;;;;;;;;;;;;;;;-144.99;100.00;52545.94;5019691;28;19991;-68
2024/04/01 01:17:17;;;;;;;;;;;;;;;-144.99;100.00;52517.41;5025078;28;20033;-66
2024/04/01 01:19:43;;;;;;;;;;;;;;;-144.99;100.00;52519.44;5018724;28;19933;-66
2024/04/01 01:22:16;;;;;;;;;;;;;;;-144.99;100.00;52505.16;5022629;28;19933;-66
2024/04/01 01:24:43;;;;;;;;;;;;;;;-144.99;100.00;52525.56;5025134;28;19932;-65
2024/04/01 01:27:09;;;;;;;;;;;;;;;-144.99;100.00;52525.56;5024328;28;19952;-66
2024/04/01 01:29:35;;;;;;;;;;;;;;;-144.99;100.00;52494.97;5024767;28;19935;-66
2024/04/01 01:32:01;;;;;;;;;;;;;;;-144.99;100.00;52503.13;5025155;28;19929;-65
2024/04/01 01:34:27;;;;;;;;;;;;;;;-144.99;100.00;52501.09;5025241;28;19929;-68
2024/04/01 01:36:54;;;;;;;;;;;;;;;-144.99;100.00;52488.84;5024406;28;19979;-68
2024/04/01 01:39:19;;;;;;;;;;;;;;;-144.99;100.00;52521.47;5025013;28;19933;-68
2024/04/01 01:41:47;;;;;;;;;;;;;;;-144.99;100.00;52529.63;5024732;28;19939;-68
2024/04/01 01:44:13;;;;;;;;;;;;;;;-144.99;100.00;52521.47;5026882;28;20450;-68
2024/04/01 01:46:39;;;;;;;;;;;;;;;-144.99;100.00;52505.16;5017804;28;19933;-68
2024/04/01 01:49:05;;;;;;;;;;;;;;;-144.99;100.00;52501.09;5025338;28;19960;-68
2024/04/01 01:51:32;;;;;;;;;;;;;;;-144.99;100.00;52505.16;5028405;28;19971;-69
2024/04/01 01:53:57;;;;;;;;;;;;;;;-144.99;100.00;52545.94;5032224;28;19932;-68
2024/04/01 01:56:24;;;;;;;;;;;;;;;-144.99;100.00;52525.56;5032096;28;19960;-70
2024/04/01 01:58:50;;;;;;;;;;;;;;;-144.99;100.00;52505.16;5039020;28;19933;-66
2024/04/01 02:01:17;;;;;;;;;;;;;;;-144.99;100.00;52488.84;5038856;28;19925;-65
2024/04/01 02:03:44;;;;;;;;;;;;;;;-144.99;100.00;52525.56;5040480;28;20044;-65
2024/04/01 02:06:10;;;;;;;;;;;;;;;-144.99;100.00;52513.31;5040882;28;19929;-65
2024/04/01 02:08:36;;;;;;;;;;;;;;;-144.99;100.00;52509.25;5036538;28;19925;-65
2024/04/01 02:11:02;;;;;;;;;;;;;;;-144.99;100.00;52497.00;5025047;28;20570;-65
2024/04/01 02:13:28;;;;;;;;;;;;;;;-144.99;100.00;52525.56;5033539;28;19937;-65
2024/04/01 02:16:06;;;;;;;;;;;;;;;-144.99;100.00;52533.69;5033388;28;19929;-66
2024/04/01 02:18:32;;;;;;;;;;;;;;;-144.99;100.00;52484.78;5033443;28;20012;-65
2024/04/01 02:20:59;;;;;;;;;;;;;;;-144.99;100.00;52545.94;5034932;28;19979;-65
2024/04/01 02:23:29;;;;;;;;;;;;;;;-144.99;100.00;52513.31;5036744;28;19940;-64
2024/04/01 02:25:55;;;;;;;;;;;;;;;-144.99;100.00;52539.81;5038539;28;19929;-65
2024/04/01 02:28:21;;;;;;;;;;;;;;;-144.99;100.00;52511.28;5039021;28;19925;-64
2024/04/01 02:30:47;;;;;;;;;;;;;;;-144.99;100.00;52533.69;4689641;28;10000428;-64
2024/04/01 02:33:14;;;;;;;;;;;;;;;-144.99;100.00;52515.34;5032060;28;19940;-64
2024/04/01 02:35:42;;;;;;;;;;;;;;;-144.99;100.00;52529.63;5039982;28;19936;-64
2024/04/01 02:38:07;;;;;;;;;;;;;;;-144.99;100.00;52509.25;5041189;28;19933;-64
2024/04/01 02:40:34;;;;;;;;;;;;;;;-144.99;100.00;52558.16;5036290;28;20407;-65
2024/04/01 02:42:59;;;;;;;;;;;;;;;-144.99;100.00;52480.72;5043945;28;20020;-64
2024/04/01 02:45:26;;;;;;;;;;;;;;;-144.99;100.00;52492.94;5042273;28;19972;-65
2024/04/01 02:47:51;;;;;;;;;;;;;;;-144.99;100.00;52521.47;5035242;28;19925;-64
2024/04/01 02:50:19;;;;;;;;;;;;;;;-144.99;100.00;52537.78;5032846;28;19929;-66
2024/04/01 02:52:47;;;;;;;;;;;;;;;-144.99;100.00;52468.47;5037069;28;19925;-67
2024/04/01 02:55:14;;;;;;;;;;;;;;;-144.99;100.00;52509.25;5033613;28;20377;-68
2024/04/01 02:57:39;;;;;;;;;;;;;;;-144.99;100.00;52519.44;5029252;28;19949;-70
2024/04/01 03:00:07;;;;;;;;;;;;;;;-144.99;100.00;52550.00;5033434;28;19960;-68
2024/04/01 03:02:33;;;;;;;;;;;;;;;-144.99;100.00;52525.56;5028212;28;19932;-68
2024/04/01 03:05:00;;;;;;;;;;;;;;;-144.99;100.00;52521.47;5036692;28;19980;-69
2024/04/01 03:07:27;;;;;;;;;;;;;;;-144.99;100.00;52550.00;5033863;28;19925;-68
2024/04/01 03:09:55;;;;;;;;;;;;;;;-144.99;100.00;52527.59;5023699;28;19929;-67
2024/04/01 03:12:20;;;;;;;;;;;;;;;-144.99;100.00;52509.25;5031640;28;19964;-67
2024/04/01 03:14:47;;;;;;;;;;;;;;;-144.99;100.00;52517.41;5031702;28;19969;-68
2024/04/01 03:17:16;;;;;;;;;;;;;;;-144.99;100.00;52484.78;5031370;28;20016;-68
2024/04/01 03:19:42;;;;;;;;;;;;;;;-144.99;100.00;52511.28;5024838;28;20384;-65
2024/04/01 03:22:08;;;;;;;;;;;;;;;-144.99;100.00;52533.69;5026511;28;19925;-66
2024/04/01 03:24:36;;;;;;;;;;;;;;;-144.99;100.00;52545.94;5030048;28;20022;-66
2024/04/01 03:27:01;;;;;;;;;;;;;;;-144.99;100.00;52488.84;5027589;28;20023;-65
2024/04/01 03:29:28;;;;;;;;;;;;;;;-144.99;100.00;52503.13;5028370;28;20016;-68
2024/04/01 03:31:53;;;;;;;;;;;;;;;-144.99;100.00;52509.25;5022668;28;19933;-66
2024/04/01 03:34:20;;;;;;;;;;;;;;;-144.99;100.00;52486.81;5029928;28;20527;-66
2024/04/01 03:36:46;;;;;;;;;;;;;;;-144.99;100.00;52537.78;5030852;28;19933;-66
2024/04/01 03:39:13;;;;;;;;;;;;;;;-144.99;100.00;52547.97;5028192;28;19933;-67
2024/04/01 03:41:41;;;;;;;;;;;;;;;-144.99;100.00;52539.81;5027609;28;19929;-67
2024/04/01 03:44:08;;;;;;;;;;;;;;;-144.99;100.00;52517.41;5030113;28;19959;-67
2024/04/01 03:46:33;;;;;;;;;;;;;;;-144.99;100.00;52509.25;5024938;28;20007;-67
2024/04/01 03:49:00;;;;;;;;;;;;;;;-144.99;100.00;52525.56;5026197;28;19977;-68
2024/04/01 03:51:25;;;;;;;;;;;;;;;-144.99;100.00;52488.84;5030155;28;19961;-65
2024/04/01 03:53:52;;;;;;;;;;;;;;;-144.99;100.00;52501.09;5030079;28;19983;-66
2024/04/01 03:56:18;;;;;;;;;;;;;;;-144.99;100.00;52480.72;5029674;28;20319;-67
2024/04/01 03:58:46;;;;;;;;;;;;;;;-144.99;100.00;52497.00;5029935;28;20007;-66
2024/04/01 04:01:11;;;;;;;;;;;;;;;-144.99;100.00;52497.00;5029843;28;19933;-65
2024/04/01 04:03:38;;;;;;;;;;;;;;;-144.99;100.00;52486.81;5027543;28;19976;-65
2024/04/01 04:06:03;;;;;;;;;;;;;;;-144.99;100.00;52513.31;5026330;28;19933;-66
2024/04/01 04:08:30;;;;;;;;;;;;;;;-144.99;100.00;52505.16;5069450;22;20002;-81
2024/04/01 04:10:56;;;;;;;;;;;;;;;-144.99;100.00;52492.94;5062249;28;19978;-81
2024/04/01 04:13:22;;;;;;;;;;;;;;;-144.99;100.00;52505.16;5065954;28;19932;-82
2024/04/01 04:15:50;;;;;;;;;;;;;;;-144.99;100.00;52480.72;5055735;28;19925;-82
2024/04/01 04:18:15;;;;;;;;;;;;;;;-144.99;100.00;52505.16;5059697;28;20019;-83
2024/04/01 04:20:42;;;;;;;;;;;;;;;-144.99;100.00;52513.31;5066874;28;19951;-83
2024/04/01 04:23:07;;;;;;;;;;;;;;;-144.99;100.00;52507.19;5059575;28;19925;-81
2024/04/01 04:25:34;;;;;;;;;;;;;;;-144.99;100.00;52513.31;5053872;28;20323;-83
2024/04/01 04:27:59;;;;;;;;;;;;;;;-144.99;100.00;52492.94;5070793;28;20003;-82
2024/04/01 04:30:26;;;;;;;;;;;;;;;-144.99;100.00;52517.41;5070567;28;19936;-82
2024/04/01 04:32:53;;;;;;;;;;;;;;;-144.99;100.00;52505.16;5066075;28;20525;-83
2024/04/01 04:35:19;;;;;;;;;;;;;;;-144.99;100.00;52507.19;5062714;28;20539;-82
2024/04/01 04:37:45;;;;;;;;;;;;;;;-144.99;100.00;52468.47;5065281;28;19925;-82
2024/04/01 04:40:14;;;;;;;;;;;;;;;-144.99;100.00;52509.25;5067451;28;20395;-82
2024/04/01 04:42:39;;;;;;;;;;;;;;;-144.99;100.00;52529.63;5072613;28;19950;-82
2024/04/01 04:45:06;;;;;;;;;;;;;;;-144.99;100.00;52509.25;5059077;28;19925;-82
2024/04/01 04:47:32;;;;;;;;;;;;;;;-144.99;100.00;52497.00;5070189;28;20031;-81
2024/04/01 04:50:00;;;;;;;;;;;;;;;-144.99;100.00;52505.16;5067810;28;20428;-80
2024/04/01 04:52:26;;;;;;;;;;;;;;;-144.99;100.00;52507.19;5062369;28;20462;-82
2024/04/01 04:54:52;;;;;;;;;;;;;;;-144.99;100.00;52545.94;5069773;28;19929;-80
2024/04/01 04:57:17;;;;;;;;;;;;;;;-144.99;100.00;52505.16;5071184;28;19984;-79
2024/04/01 04:59:46;;;;;;;;;;;;;;;-144.99;100.00;52486.81;5070325;28;19956;-82
2024/04/01 05:02:11;;;;;;;;;;;;;;;-144.99;100.00;52486.81;5070813;28;19959;-81
2024/04/01 05:04:37;;;;;;;;;;;;;;;-144.99;100.00;52529.63;5068405;28;19924;-79
2024/04/01 05:07:04;;;;;;;;;;;;;;;-144.99;100.00;52484.78;5069424;28;20415;-81
2024/04/01 05:09:31;;;;;;;;;;;;;;;-144.99;100.00;52537.78;5065253;28;19982;-82
2024/04/01 05:11:56;;;;;;;;;;;;;;;-144.99;100.00;52517.41;5068369;28;19929;-80
2024/04/01 05:14:25;;;;;;;;;;;;;;;-144.99;100.00;52505.16;5063227;28;20192;-81
2024/04/01 05:16:51;;;;;;;;;;;;;;;-144.99;100.00;52464.41;5064372;28;20047;-77
2024/04/01 05:19:18;;;;;;;;;;;;;;;-144.99;100.00;52521.47;5058884;28;19925;-79
2024/04/01 05:21:43;;;;;;;;;;;;;;;-144.99;100.00;52468.47;5070418;28;19952;-81
2024/04/01 05:24:11;;;;;;;;;;;;;;;-144.99;100.00;52554.09;5063863;28;19924;-81
2024/04/01 05:26:36;;;;;;;;;;;;;;;-144.99;100.00;52503.13;5075011;28;19999;-80
2024/04/01 05:29:03;;;;;;;;;;;;;;;-144.99;100.00;52497.00;5067281;28;19960;-81
2024/04/01 05:31:29;;;;;;;;;;;;;;;-144.99;100.00;52478.66;5069448;28;20107;-81
2024/04/01 05:33:56;;;;;;;;;;;;;;;-144.99;100.00;52492.94;5072835;28;20044;-79
2024/04/01 05:36:23;;;;;;;;;;;;;;;-144.99;100.00;52499.06;5071381;28;19952;-79
2024/04/01 05:38:50;;;;;;;;;;;;;;;-144.99;100.00;52519.44;5075702;28;19971;-81
2024/04/01 05:41:16;;;;;;;;;;;;;;;-144.99;100.00;52501.09;5074412;28;19971;-81
2024/04/01 05:43:43;;;;;;;;;;;;;;;-144.99;100.00;52513.31;5067157;28;19925;-80
2024/04/01 05:46:08;;;;;;;;;;;;;;;-144.99;100.00;52501.09;5066837;28;20438;-81
2024/04/01 05:48:35;;;;;;;;;;;;;;;-144.99;100.00;52472.56;5068555;28;19932;-79
2024/04/01 05:51:01;;;;;;;;;;;;;;;-144.99;100.00;52521.47;5073726;28;19996;-79
2024/04/01 05:53:27;;;;;;;;;;;;;;;-144.99;100.00;52547.97;5060888;28;20077;-78
2024/04/01 05:55:53;;;;;;;;;;;;;;;-144.99;100.00;52456.25;5074993;28;19951;-77
2024/04/01 05:58:21;;;;;;;;;;;;;;;-144.99;100.00;52503.13;5058088;28;19924;-77
2024/04/01 06:00:46;;;;;;;;;;;;;;;-144.99;100.00;52533.69;5074017;28;19924;-80
2024/04/01 06:03:13;;;;;;;;;;;;;;;-144.99;100.00;52482.75;5066102;28;20032;-79
2024/04/01 06:05:39;;;;;;;;;;;;;;;-144.99;100.00;52564.28;5071276;28;20379;-78
2024/04/01 06:08:06;;;;;;;;;;;;;;;-144.99;100.00;52521.47;5062989;28;19963;-79
2024/04/01 06:10:36;;;;;;;;;;;;;;;-144.99;100.00;52484.78;5074796;28;20788;-80
2024/04/01 06:13:02;;;;;;;;;;;;;;;-144.99;100.00;52492.94;5065826;28;19975;-82
2024/04/01 06:15:29;;;;;;;;;;;;;;;-144.99;100.00;52525.56;5074779;28;19929;-76
2024/04/01 06:17:56;;;;;;;;;;;;;;;-144.99;100.00;52501.09;5066635;28;19952;-77
2024/04/01 06:20:21;;;;;;;;;;;;;;;-144.99;100.00;52521.47;5070934;28;19929;-78
2024/04/01 06:22:48;;;;;;;;;;;;;;;-144.99;100.00;52497.00;5071201;28;19924;-79
2024/04/01 06:25:13;;;;;;;;;;;;;;;-144.99;100.00;52537.78;5075119;28;19981;-78
2024/04/01 06:27:40;;;;;;;;;;;;;;;-144.99;100.00;52517.41;5068514;28;20338;-77
2024/04/01 06:30:07;;;;;;;;;;;;;;;-144.99;100.00;52501.09;5062736;28;19940;-77
2024/04/01 06:32:35;;;;;;;;;;;;;;;-144.99;100.00;52484.78;5060115;28;20027;-81
2024/04/01 06:35:00;;;;;;;;;;;;;;;-144.99;100.00;52554.09;5074973;28;19932;-81
2024/04/01 06:37:28;;;;;;;;;;;;;;;-144.99;100.00;52484.78;5075811;28;19928;-80
2024/04/01 06:39:54;;;;;;;;;;;;;;;-144.99;100.00;52456.25;5080386;28;20547;-81
2024/04/01 06:42:20;;;;;;;;;;;;;;;-144.99;100.00;52505.16;5074273;28;19925;-79
2024/04/01 06:44:46;;;;;;;;;;;;;;;-144.99;100.00;52513.31;5075986;28;20059;-78
2024/04/01 06:47:13;;;;;;;;;;;;;;;-144.99;100.00;52513.31;5066269;28;19944;-78
2024/04/01 06:49:40;;;;;;;;;;;;;;;-144.99;100.00;52484.78;5073398;28;20311;-80
2024/04/01 06:52:06;;;;;;;;;;;;;;;-144.99;100.00;52517.41;5064194;28;19964;-80
2024/04/01 06:54:32;;;;;;;;;;;;;;;-144.99;100.00;52472.56;5073336;28;19951;-78
2024/04/01 06:56:58;;;;;;;;;;;;;;;-144.99;100.00;52497.00;5074413;28;19928;-81
2024/04/01 06:59:24;;;;;;;;;;;;;;;-144.99;100.00;52511.28;5077514;28;19978;-80
2024/04/01 07:01:50;;;;;;;;;;;;;;;-144.99;100.00;52515.34;5077188;28;19936;-80
2024/04/01 07:04:16;;;;;;;;;;;;;;;-144.99;100.00;52488.84;5082739;28;19936;-82
2024/04/01 07:06:44;;;;;;;;;;;;;;;-144.99;100.00;52480.72;5076315;28;20074;-82
2024/04/01 07:09:10;;;;;;;;;;;;;;;-144.99;100.00;52505.16;5085002;28;19935;-81
2024/04/01 07:11:37;;;;;;;;;;;;;;;-144.99;100.00;52490.91;5080334;28;19924;-77
2024/04/01 07:14:02;;;;;;;;;;;;;;;-144.99;100.00;52541.84;5074067;28;19959;-80
2024/04/01 07:16:29;;;;;;;;;;;;;;;-144.99;100.00;52492.94;5074752;28;19932;-79
2024/04/01 07:18:54;;;;;;;;;;;;;;;-144.99;100.00;52529.63;5041645;28;19932;-78
2024/04/01 07:21:21;;;;;;;;;;;;;;;-144.99;100.00;52490.91;5067260;28;19982;-79
2024/04/01 07:23:47;;;;;;;;;;;;;;;-144.99;100.00;52509.25;5069839;28;19924;-79
2024/04/01 07:26:14;;;;;;;;;;;;;;;-144.99;100.00;52541.84;5059948;28;19924;-78
2024/04/01 07:28:39;;;;;;;;;;;;;;;-144.99;100.00;52492.94;5068037;28;20470;-77
2024/04/01 07:31:07;;;;;;;;;;;;;;;-144.99;100.00;52497.00;5037745;28;19925;-75
2024/04/01 07:33:32;;;;;;;;;;;;;;;-144.99;100.00;52497.00;5062045;28;19928;-78
2024/04/01 07:35:59;;;;;;;;;;;;;;;-144.99;100.00;52464.41;5060415;28;20312;-76
2024/04/01 07:38:24;;;;;;;;;;;;;;;-144.99;100.00;52492.94;5061807;28;19973;-77
2024/04/01 07:40:52;;;;;;;;;;;;;;;-144.99;100.00;52513.31;5064454;28;19928;-76
2024/04/01 07:43:17;;;;;;;;;;;;;;;-144.99;100.00;52517.41;5060806;28;19928;-77
2024/04/01 07:45:44;;;;;;;;;;;;;;;-144.99;100.00;52492.94;5063448;28;20038;-78
2024/04/01 07:48:09;;;;;;;;;;;;;;;-144.99;100.00;52474.59;5058840;28;20379;-75
2024/04/01 07:50:36;;;;;;;;;;;;;;;-144.99;100.00;52478.66;5062359;28;19924;-78
2024/04/01 07:53:01;;;;;;;;;;;;;;;-144.99;100.00;52501.09;5073211;28;19958;-79
2024/04/01 07:55:28;;;;;;;;;;;;;;;-144.99;100.00;52511.28;5071281;28;20664;-78
2024/04/01 07:57:54;;;;;;;;;;;;;;;-144.99;100.00;52517.41;5070014;28;20408;-77
2024/04/01 08:00:21;;;;;;;;;;;;;;;-144.99;100.00;52492.94;5071148;28;19932;-77
2024/04/01 08:02:46;;;;;;;;;;;;;;;-144.99;100.00;52513.31;5066208;28;19929;-77
2024/04/01 08:05:13;;;;;;;;;;;;;;;-144.99;100.00;52505.16;5068811;28;19978;-78
2024/04/01 08:07:38;;;;;;;;;;;;;;;-144.99;100.00;52476.63;5060005;28;20380;-76
2024/04/01 08:10:05;;;;;;;;;;;;;;;-144.99;100.00;52492.94;5063098;28;20325;-77
2024/04/01 08:12:31;;;;;;;;;;;;;;;-144.99;100.00;52505.16;5062969;28;20023;-78
2024/04/01 08:14:59;;;;;;;;;;;;;;;-144.99;100.00;52464.41;5059157;28;20600;-76
2024/04/01 08:17:24;;;;;;;;;;;;;;;-144.99;100.00;52466.44;5058018;28;20679;-78
2024/04/01 08:19:50;;;;;;;;;;;;;;;-144.99;100.00;52541.84;5061344;28;20081;-76
2024/04/01 08:22:16;;;;;;;;;;;;;;;-144.99;100.00;52478.66;5061298;28;20011;-77
2024/04/01 08:24:42;;;;;;;;;;;;;;;-144.99;100.00;52486.81;5060501;28;20476;-78
2024/04/01 08:27:09;;;;;;;;;;;;;;;-144.99;100.00;52501.09;5057576;28;19978;-77
2024/04/01 08:29:35;;;;;;;;;;;;;;;-144.99;100.00;52525.56;5057913;28;19929;-76
2024/04/01 08:32:02;;;;;;;;;;;;;;;-144.99;100.00;52454.22;5064732;28;19924;-76
2024/04/01 08:34:29;;;;;;;;;;;;;;;-144.99;100.00;52480.72;5065517;28;19989;-78
2024/04/01 08:36:54;;;;;;;;;;;;;;;-144.99;100.00;52505.16;5062754;28;19974;-79
2024/04/01 08:39:21;;;;;;;;;;;;;;;-144.99;100.00;52521.47;5065242;28;19928;-79
2024/04/01 08:41:51;;;;;;;;;;;;;;;-144.99;100.00;52513.31;5064964;28;20027;-79
2024/04/01 08:44:18;;;;;;;;;;;;;;;-144.99;100.00;52468.47;5065847;28;20411;-76
2024/04/01 08:46:44;;;;;;;;;;;;;;;-144.99;100.00;52505.16;5064749;28;19963;-77
2024/04/01 08:49:12;;;;;;;;;;;;;;;-144.99;100.00;52484.78;5068447;28;19935;-77
2024/04/01 08:51:38;;;;;;;;;;;;;;;-144.99;100.00;52492.94;5065711;28;20404;-77
2024/04/01 08:54:07;;;;;;;;;;;;;;;-144.99;100.00;52488.84;5070466;28;19925;-77
2024/04/01 08:56:33;;;;;;;;;;;;;;;-144.99;100.00;52517.41;5066716;28;19943;-76
2024/04/01 08:59:00;;;;;;;;;;;;;;;-144.99;100.00;52509.25;5066680;28;19932;-79
2024/04/01 09:01:25;;;;;;;;;;;;;;;-144.99;100.00;52497.00;5066052;28;20019;-77
2024/04/01 09:03:52;;;;;;;;;;;;;;;-144.99;100.00;52507.19;5065274;28;20015;-77
2024/04/01 09:06:19;;;;;;;;;;;;;;;-144.99;100.00;52505.16;5059624;28;19925;-78
2024/04/01 09:08:46;;;;;;;;;;;;;;;-144.99;100.00;52476.63;5066269;28;20694;-79
2024/04/01 09:11:12;;;;;;;;;;;;;;;-144.99;100.00;52513.31;5068337;28;20424;-80
2024/04/01 09:13:38;;;;;;;;;;;;;;;-144.99;100.00;52497.00;5063611;28;19972;-79
2024/04/01 09:16:04;;;;;;;;;;;;;;;-144.99;100.00;52501.09;5072837;28;19924;-80
2024/04/01 09:18:36;;;;;;;;;;;;;;;-144.99;100.00;52494.97;5065575;28;19932;-79
2024/04/01 09:21:01;;;;;;;;;;;;;;;-144.99;100.00;52460.31;5068556;28;19928;-79
2024/04/01 09:23:31;;;;;;;;;;;;;;;-144.99;100.00;52456.25;5068965;28;20404;-77
2024/04/01 09:25:57;;;;;;;;;;;;;;;-144.99;100.00;52513.31;5070876;28;19928;-79
2024/04/01 09:28:23;;;;;;;;;;;;;;;-144.99;100.00;52484.78;5061780;28;19924;-81
2024/04/01 09:30:49;;;;;;;;;;;;;;;-144.99;100.00;52505.16;5069898;28;20364;-78
2024/04/01 09:33:15;;;;;;;;;;;;;;;-144.99;100.00;52501.09;5071296;28;19939;-79
2024/04/01 09:35:41;;;;;;;;;;;;;;;-144.99;100.00;52492.94;5073736;28;19924;-80
2024/04/01 09:38:08;;;;;;;;;;;;;;;-144.99;100.00;52501.09;5076315;28;20494;-80
2024/04/01 09:40:36;;;;;;;;;;;;;;;-144.99;100.00;52468.47;5073261;28;20296;-79
2024/04/01 09:43:02;;;;;;;;;;;;;;;-144.99;100.00;52470.50;5073149;28;20389;-79
2024/04/01 09:45:29;;;;;;;;;;;;;;;-144.99;100.00;52472.56;5073114;28;19944;-80
2024/04/01 09:47:55;;;;;;;;;;;;;;;-144.99;100.00;52484.78;5070796;28;20436;-77
2024/04/01 09:50:21;;;;;;;;;;;;;;;-144.99;100.00;52539.81;5070145;28;20503;-77
2024/04/01 09:52:48;;;;;;;;;;;;;;;-144.99;100.00;52490.91;5071773;28;19974;-77
2024/04/01 09:55:18;;;;;;;;;;;;;;;-144.99;100.00;52497.00;5073945;28;19977;-80
2024/04/01 09:57:59;;;;;;;;;;;;;;;-144.99;100.00;52468.47;5068587;28;20351;-79
2024/04/01 10:00:33;;;;;;;;;;;;;;;-144.99;100.00;52492.94;5057672;28;20023;-79
2024/04/01 10:03:18;;;;;;;;;;;;;;;-144.99;100.00;52490.91;5067444;28;20284;-79
2024/04/01 10:06:06;;;;;;;;;;;;;;;-144.99;100.00;52523.50;5061158;28;19924;-76
2024/04/01 10:08:49;;;;;;;;;;;;;;;-144.99;100.00;52517.41;5068011;22;20024;-72
2024/04/01 10:11:23;;;;;;;;;;;;;;;-144.99;100.00;52480.72;5033380;28;19972;-74
2024/04/01 10:14:12;;;;;;;;;;;;;;;-144.99;100.00;52521.47;5051668;28;20316;-74
2024/04/01 10:19:53;;;;;;;;;;;;;;;-144.99;100.00;52448.09;5143778;27;19915;-71
2024/04/01 10:22:32;;;;;;;;;;;;;;;-144.99;100.00;52517.41;5117161;27;19992;-71
2024/04/01 10:25:23;;;;;;;;;;;;;;;-144.99;100.00;52484.78;5111918;27;20006;-70
2024/04/01 10:28:04;;;;;;;;;;;;;;;-144.99;100.00;52488.84;5120948;27;19924;-71
2024/04/01 10:30:49;;;;;;;;;;;;;;;-144.99;100.00;52448.09;5116114;27;19939;-70
2024/04/01 10:33:41;;;;;;;;;;;;;;;-144.99;100.00;52472.56;5112279;27;19924;-71
2024/04/01 10:36:21;;;;;;;;;;;;;;;-144.99;100.00;52501.09;5091968;27;19939;-71
2024/04/01 10:39:11;;;;;;;;;;;;;;;-144.99;100.00;52466.44;5108531;28;20018;-71
2024/04/01 10:41:57;;;;;;;;;;;;;;;-144.99;100.00;52468.47;5106844;28;19985;-71
2024/04/01 10:44:44;;;;;;;;;;;;;;;-144.99;100.00;52468.47;5106704;28;19929;-71
2024/04/01 10:47:25;;;;;;;;;;;;;;;-144.99;100.00;52439.94;5107104;28;19958;-71
2024/04/01 10:50:00;;;;;;;;;;;;;;;-144.99;100.00;52513.31;5111826;27;19951;-71
2024/04/01 10:52:41;;;;;;;;;;;;;;;-144.99;100.00;52460.31;5106941;28;20386;-71
2024/04/01 10:55:20;;;;;;;;;;;;;;;-144.99;100.00;52472.56;5108734;27;20042;-71
2024/04/01 10:57:59;;;;;;;;;;;;;;;-144.99;100.00;52452.16;5110509;27;19935;-71
2024/04/01 11:00:43;;;;;;;;;;;;;;;-144.99;100.00;52472.56;5106789;27;19955;-71
2024/04/01 11:03:26;;;;;;;;;;;;;;;-144.99;100.00;52488.84;5103592;28;20028;-70
2024/04/01 11:06:03;;;;;;;;;;;;;;;-144.99;100.00;52444.03;5096053;28;19974;-71
2024/04/01 11:08:38;;;;;;;;;;;;;;;-144.99;100.00;52456.25;5101239;28;19935;-72
2024/04/01 11:11:12;;;;;;;;;;;;;;;-144.99;100.00;52482.75;5110853;27;19924;-71
2024/04/01 11:13:39;;;;;;;;;;;;;;;-144.99;100.00;52480.72;5095780;28;19932;-72
2024/04/01 11:16:06;;;;;;;;;;;;;;;-144.99;100.00;52464.41;5112124;27;19951;-72
2024/04/01 11:18:37;;;;;;;;;;;;;;;-144.99;100.00;52458.28;5118221;27;19947;-72
2024/04/01 11:21:05;;;;;;;;;;;;;;;-144.99;100.00;52456.25;5116720;27;20014;-72
2024/04/01 11:23:45;;;;;;;;;;;;;;;-144.99;100.00;52464.41;5109723;28;19932;-73
2024/04/01 11:26:18;;;;;;;;;;;;;;;-144.99;100.00;52484.78;5110247;27;19931;-72
2024/04/01 11:28:54;;;;;;;;;;;;;;;-144.99;100.00;52492.94;5109864;27;19970;-72
2024/04/01 11:31:23;;;;;;;;;;;;;;;-144.99;100.00;52456.25;5099789;28;19947;-72
2024/04/01 11:33:55;;;;;;;;;;;;;;;-144.99;100.00;52476.63;5095312;28;19995;-72
2024/04/01 11:36:26;;;;;;;;;;;;;;;-144.99;100.00;52439.94;5099978;28;19928;-72
2024/04/01 11:38:58;;;;;;;;;;;;;;;-144.99;100.00;52464.41;5096793;28;19924;-72
2024/04/01 11:41:24;;;;;;;;;;;;;;;-144.99;100.00;52450.13;5095761;28;20039;-72
2024/04/01 11:43:52;;;;;;;;;;;;;;;-144.99;100.00;52472.56;5097684;28;20219;-72
2024/04/01 11:46:19;;;;;;;;;;;;;;;-144.99;100.00;52484.78;5093703;28;20006;-72
2024/04/01 11:48:45;;;;;;;;;;;;;;;-144.99;100.00;52446.06;5099304;28;20304;-72
2024/04/01 11:51:11;;;;;;;;;;;;;;;-144.99;100.00;52468.47;5107604;28;19992;-72
2024/04/01 11:53:38;;;;;;;;;;;;;;;-144.99;100.00;52468.47;5098755;28;19924;-73
2024/04/01 11:56:05;;;;;;;;;;;;;;;-144.99;100.00;52484.78;5105730;28;20017;-73
2024/04/01 11:58:32;;;;;;;;;;;;;;;-144.99;100.00;52468.47;5100804;28;19959;-72
2024/04/01 12:00:58;;;;;;;;;;;;;;;-144.99;100.00;52464.41;5106718;28;19924;-71
2024/04/01 12:03:26;;;;;;;;;;;;;;;-144.99;100.00;52466.44;5091462;28;20273;-72
2024/04/01 12:05:52;;;;;;;;;;;;;;;-144.99;100.00;52448.09;5102456;28;19924;-72
2024/04/01 12:08:20;;;;;;;;;;;;;;;-144.99;100.00;52452.16;5093359;28;19924;-71
2024/04/01 12:10:45;;;;;;;;;;;;;;;-144.99;100.00;52503.13;5089739;28;19927;-72
2024/04/01 12:13:13;;;;;;;;;;;;;;;-144.99;100.00;52488.84;5094784;28;20434;-72
2024/04/01 12:15:39;;;;;;;;;;;;;;;-144.99;100.00;52472.56;5098003;28;19982;-72
2024/04/01 12:18:08;;;;;;;;;;;;;;;-144.99;100.00;52460.31;5091870;28;19928;-72
2024/04/01 12:20:33;;;;;;;;;;;;;;;-144.99;100.00;52456.25;5105492;28;19928;-71
2024/04/01 12:23:05;;;;;;;;;;;;;;;-144.99;100.00;52466.44;5099135;28;19946;-71
2024/04/01 12:25:31;;;;;;;;;;;;;;;-144.99;100.00;52486.81;5096848;27;20023;-71